This is the latest recevied weather packets stored in our database for station/object DL7HMX-13. If no packets are shown the sender has not sent any weather packets the latest 1 day(s).
| Time | Temp. | Humidity | Pressure | Rain* | Wind** | Luminosity | Snow |
|---|---|---|---|---|---|---|---|
| 1778047222 | 15° C | 87% | 1008.2 hPa | 0 mm | - | 201 W/m² | - |
| 1778046624 | 14.44° C | 90% | 1008.2 hPa | 0 mm | - | 150 W/m² | - |
| 1778046027 | 13.33° C | 94% | 1008.1 hPa | 0 mm | - | 104 W/m² | - |
| 1778045431 | 13.33° C | 93% | 1008.1 hPa | 0 mm | - | 123 W/m² | - |
| 1778044817 | 12.78° C | 97% | 1008.1 hPa | 0 mm | - | 91 W/m² | - |
| 1778044219 | 12.22° C | 98% | 1008.2 hPa | 0 mm | - | 53 W/m² | - |
| 1778043025 | 12.22° C | 98% | 1008.1 hPa | 0 mm | - | 33 W/m² | - |
| 1778042429 | 12.78° C | 96% | 1008.1 hPa | 0 mm | - | 20 W/m² | - |
| 1778041831 | 12.22° C | 98% | 1008.1 hPa | 0 mm | - | 28 W/m² | - |
| 1778040623 | 11.67° C | 98% | 1008.5 hPa | 0 mm | - | 20 W/m² | - |
| 1778039428 | 12.22° C | 96% | 1008.5 hPa | 0 mm | - | 8 W/m² | - |
| 1778038830 | 12.22° C | 96% | 1008.7 hPa | 0 mm | - | 3 W/m² | - |
| 1778038218 | 12.22° C | 97% | 1008.7 hPa | 0 mm | - | 1 W/m² | - |
| 1778037620 | 12.22° C | 98% | 1008.7 hPa | 0 mm | - | 0 W/m² | - |
| 1778037023 | 12.78° C | 96% | 1008.3 hPa | 0 mm | - | 0 W/m² | - |
| 1778036426 | 12.78° C | 95% | 1008.3 hPa | 0 mm | - | 0 W/m² | - |
| 1778035829 | 13.33° C | 95% | 1008.3 hPa | 0 mm | - | 0 W/m² | - |
| 1778035216 | 13.33° C | 95% | 1008.3 hPa | 0 mm | - | 0 W/m² | - |
| 1778034620 | 13.33° C | 94% | 1008.4 hPa | 0 mm | - | 0 W/m² | - |
| 1778034022 | 13.33° C | 95% | 1008.4 hPa | 0 mm | - | 0 W/m² | - |
| 1778032828 | 12.78° C | 96% | 1008.5 hPa | 0 mm | - | 0 W/m² | - |
| 1778032230 | 13.33° C | 95% | 1008.4 hPa | 0 mm | - | 0 W/m² | - |
| 1778031618 | 13.33° C | 94% | 1008.4 hPa | 0 mm | - | 0 W/m² | - |
| 1778031020 | 13.33° C | 94% | 1008.5 hPa | 0 mm | - | 0 W/m² | - |
| 1778030424 | 12.78° C | 96% | 1008.7 hPa | 0 mm | - | 0 W/m² | - |
* Rain latest hour (hover to see other rain measurements)
** Current wind speed in m/s (hover to see current wind gust speed)